TimeCST,TemperatureF,Dew PointF,Humidity,Sea Level PressureIn,VisibilityMPH,Wind Direction,Wind SpeedMPH,Gust SpeedMPH,PrecipitationIn,Events,Conditions,WindDirDegrees,DateUTC
12:53 AM,41.0,35.1,79,30.28,10.0,SSE,5.8,-,N/A,,Clear,150,2012-11-30 06:53:00
1:53 AM,43.0,36.0,76,30.27,10.0,SSE,6.9,-,N/A,,Clear,150,2012-11-30 07:53:00
2:53 AM,42.1,36.0,79,30.27,10.0,SSE,4.6,-,N/A,,Clear,160,2012-11-30 08:53:00
3:53 AM,39.0,35.1,86,30.27,10.0,South,3.5,-,N/A,,Clear,170,2012-11-30 09:53:00
4:53 AM,37.0,35.1,93,30.27,9.0,SE,4.6,-,N/A,,Clear,140,2012-11-30 10:53:00
5:53 AM,37.9,36.0,93,30.28,8.0,ESE,4.6,-,N/A,,Clear,120,2012-11-30 11:53:00
6:53 AM,37.0,35.1,93,30.29,7.0,SE,5.8,-,N/A,,Clear,140,2012-11-30 12:53:00
7:53 AM,44.1,41.0,89,30.30,7.0,SE,8.1,-,N/A,,Clear,140,2012-11-30 13:53:00
8:53 AM,50.0,44.1,80,30.31,9.0,South,8.1,-,N/A,,Clear,170,2012-11-30 14:53:00
9:53 AM,55.0,46.9,74,30.31,10.0,South,10.4,-,N/A,,Clear,180,2012-11-30 15:53:00
10:53 AM,60.1,48.0,64,30.30,10.0,South,9.2,-,N/A,,Clear,180,2012-11-30 16:53:00
11:53 AM,63.0,50.0,63,30.27,10.0,South,6.9,-,N/A,,Clear,180,2012-11-30 17:53:00
12:53 PM,64.9,51.1,61,30.25,10.0,Variable,4.6,-,N/A,,Clear,0,2012-11-30 18:53:00
1:53 PM,64.9,50.0,58,30.22,10.0,SW,5.8,-,N/A,,Clear,220,2012-11-30 19:53:00
2:53 PM,66.0,50.0,56,30.22,10.0,South,4.6,-,N/A,,Clear,190,2012-11-30 20:53:00
3:53 PM,64.9,51.1,61,30.22,10.0,SE,8.1,-,N/A,,Clear,130,2012-11-30 21:53:00
4:53 PM,61.0,50.0,67,30.21,10.0,SE,6.9,-,N/A,,Clear,130,2012-11-30 22:53:00
5:53 PM,55.0,46.0,72,30.21,10.0,SE,6.9,-,N/A,,Clear,130,2012-11-30 23:53:00
6:53 PM,53.1,46.9,80,30.21,10.0,SE,9.2,-,N/A,,Clear,130,2012-12-01 00:53:00
7:53 PM,53.1,45.0,74,30.22,10.0,ESE,4.6,-,N/A,,Clear,120,2012-12-01 01:53:00
8:53 PM,50.0,44.6,82,30.19,10.0,SE,5.8,-,N/A,,Clear,130,2012-12-01 02:53:00
9:53 PM,48.2,42.8,82,30.19,10.0,SSE,4.6,-,N/A,,Clear,150,2012-12-01 03:53:00
10:53 PM,51.1,43.0,74,30.22,10.0,SE,4.6,-,N/A,,Clear,140,2012-12-01 04:53:00
11:53 PM,51.1,44.1,77,30.22,10.0,SSE,4.6,-,N/A,,Mostly Cloudy,150,2012-12-01 05:53:00